sensor_id;sensor_type;location;lat;lon;timestamp;temperature;humidity
3980;DHT22;2004;52.452;13.120;2023-04-16T00:00:52;10.00;99.90
3980;DHT22;2004;52.452;13.120;2023-04-16T00:08:42;10.00;99.90
3980;DHT22;2004;52.452;13.120;2023-04-16T00:16:33;9.90;99.90
3980;DHT22;2004;52.452;13.120;2023-04-16T00:24:24;10.00;99.90
3980;DHT22;2004;52.452;13.120;2023-04-16T00:32:14;10.00;99.90
3980;DHT22;2004;52.452;13.120;2023-04-16T00:40:06;10.00;99.90
3980;DHT22;2004;52.452;13.120;2023-04-16T00:47:57;9.90;99.90
3980;DHT22;2004;52.452;13.120;2023-04-16T00:55:48;9.90;99.90
3980;DHT22;2004;52.452;13.120;2023-04-16T01:03:43;9.90;99.90
3980;DHT22;2004;52.452;13.120;2023-04-16T01:11:35;9.80;99.90
3980;DHT22;2004;52.452;13.120;2023-04-16T01:19:27;9.80;99.90
3980;DHT22;2004;52.452;13.120;2023-04-16T01:27:20;9.80;99.90
3980;DHT22;2004;52.452;13.120;2023-04-16T01:35:10;9.70;99.90
3980;DHT22;2004;52.452;13.120;2023-04-16T01:43:01;9.70;99.90
3980;DHT22;2004;52.452;13.120;2023-04-16T01:50:52;9.70;99.90
3980;DHT22;2004;52.452;13.120;2023-04-16T01:58:42;9.60;99.90
3980;DHT22;2004;52.452;13.120;2023-04-16T02:06:33;9.60;99.90
3980;DHT22;2004;52.452;13.120;2023-04-16T02:14:23;9.60;99.90
3980;DHT22;2004;52.452;13.120;2023-04-16T02:22:14;9.60;99.90
3980;DHT22;2004;52.452;13.120;2023-04-16T02:30:07;9.50;99.90
3980;DHT22;2004;52.452;13.120;2023-04-16T02:37:58;9.50;99.90
3980;DHT22;2004;52.452;13.120;2023-04-16T02:45:49;9.40;99.90
3980;DHT22;2004;52.452;13.120;2023-04-16T02:53:39;9.40;99.90
3980;DHT22;2004;52.452;13.120;2023-04-16T03:01:30;9.30;99.90
3980;DHT22;2004;52.452;13.120;2023-04-16T03:09:20;9.20;99.90
3980;DHT22;2004;52.452;13.120;2023-04-16T03:17:11;9.20;99.90
3980;DHT22;2004;52.452;13.120;2023-04-16T03:25:01;9.10;99.90
3980;DHT22;2004;52.452;13.120;2023-04-16T03:32:52;9.10;99.90
3980;DHT22;2004;52.452;13.120;2023-04-16T03:40:42;9.00;99.90
3980;DHT22;2004;52.452;13.120;2023-04-16T03:48:33;8.90;99.90
3980;DHT22;2004;52.452;13.120;2023-04-16T03:56:23;8.90;99.90
3980;DHT22;2004;52.452;13.120;2023-04-16T04:04:14;8.90;99.90
3980;DHT22;2004;52.452;13.120;2023-04-16T04:12:04;8.90;99.90
3980;DHT22;2004;52.452;13.120;2023-04-16T04:19:55;8.80;99.90
3980;DHT22;2004;52.452;13.120;2023-04-16T04:27:46;8.90;99.90
3980;DHT22;2004;52.452;13.120;2023-04-16T04:35:36;8.90;99.90
3980;DHT22;2004;52.452;13.120;2023-04-16T04:43:28;8.80;99.90
3980;DHT22;2004;52.452;13.120;2023-04-16T04:51:19;8.80;99.90
3980;DHT22;2004;52.452;13.120;2023-04-16T04:59:10;8.80;99.90
3980;DHT22;2004;52.452;13.120;2023-04-16T05:07:02;8.80;99.90
3980;DHT22;2004;52.452;13.120;2023-04-16T05:14:52;8.80;99.90
3980;DHT22;2004;52.452;13.120;2023-04-16T05:22:43;8.80;99.90
3980;DHT22;2004;52.452;13.120;2023-04-16T05:30:33;8.80;99.90
3980;DHT22;2004;52.452;13.120;2023-04-16T05:38:24;8.90;99.90
3980;DHT22;2004;52.452;13.120;2023-04-16T05:46:14;8.90;99.90
3980;DHT22;2004;52.452;13.120;2023-04-16T05:54:06;8.90;99.90
3980;DHT22;2004;52.452;13.120;2023-04-16T06:01:56;8.90;99.90
3980;DHT22;2004;52.452;13.120;2023-04-16T06:09:47;8.90;99.90
3980;DHT22;2004;52.452;13.120;2023-04-16T06:17:39;8.90;99.90
3980;DHT22;2004;52.452;13.120;2023-04-16T06:25:29;8.90;99.90
3980;DHT22;2004;52.452;13.120;2023-04-16T06:33:20;9.00;99.90
3980;DHT22;2004;52.452;13.120;2023-04-16T06:41:10;9.00;99.90
3980;DHT22;2004;52.452;13.120;2023-04-16T06:49:01;9.00;99.90
3980;DHT22;2004;52.452;13.120;2023-04-16T06:56:51;9.10;99.90
3980;DHT22;2004;52.452;13.120;2023-04-16T07:04:42;9.10;99.90
3980;DHT22;2004;52.452;13.120;2023-04-16T07:12:32;9.10;99.90
3980;DHT22;2004;52.452;13.120;2023-04-16T07:20:23;9.10;99.90
3980;DHT22;2004;52.452;13.120;2023-04-16T07:28:13;9.10;99.90
3980;DHT22;2004;52.452;13.120;2023-04-16T07:36:06;9.10;99.90
3980;DHT22;2004;52.452;13.120;2023-04-16T07:43:57;9.20;99.90
3980;DHT22;2004;52.452;13.120;2023-04-16T07:51:48;9.20;99.90
3980;DHT22;2004;52.452;13.120;2023-04-16T07:59:38;9.20;99.90
3980;DHT22;2004;52.452;13.120;2023-04-16T08:07:29;9.20;99.90
3980;DHT22;2004;52.452;13.120;2023-04-16T08:15:19;9.20;99.90
3980;DHT22;2004;52.452;13.120;2023-04-16T08:23:10;9.30;99.90
3980;DHT22;2004;52.452;13.120;2023-04-16T08:31:01;9.30;99.90
3980;DHT22;2004;52.452;13.120;2023-04-16T08:38:51;9.40;99.90
3980;DHT22;2004;52.452;13.120;2023-04-16T08:46:43;9.40;99.90
3980;DHT22;2004;52.452;13.120;2023-04-16T08:54:41;9.50;99.90
3980;DHT22;2004;52.452;13.120;2023-04-16T09:02:33;9.50;99.90
3980;DHT22;2004;52.452;13.120;2023-04-16T09:10:25;9.50;99.90
3980;DHT22;2004;52.452;13.120;2023-04-16T09:18:16;9.50;99.90
3980;DHT22;2004;52.452;13.120;2023-04-16T09:26:06;9.50;99.90
3980;DHT22;2004;52.452;13.120;2023-04-16T09:34:02;9.50;99.90
3980;DHT22;2004;52.452;13.120;2023-04-16T09:41:53;9.50;99.90
3980;DHT22;2004;52.452;13.120;2023-04-16T09:49:44;9.60;99.90
3980;DHT22;2004;52.452;13.120;2023-04-16T09:57:37;9.60;99.90
3980;DHT22;2004;52.452;13.120;2023-04-16T10:05:28;9.70;99.90
3980;DHT22;2004;52.452;13.120;2023-04-16T10:13:18;9.70;99.90
3980;DHT22;2004;52.452;13.120;2023-04-16T10:21:09;9.70;99.90
3980;DHT22;2004;52.452;13.120;2023-04-16T10:29:05;9.80;99.90
3980;DHT22;2004;52.452;13.120;2023-04-16T10:36:56;9.80;99.90
3980;DHT22;2004;52.452;13.120;2023-04-16T10:44:47;9.90;99.90
3980;DHT22;2004;52.452;13.120;2023-04-16T10:52:39;9.90;99.90
3980;DHT22;2004;52.452;13.120;2023-04-16T11:00:29;9.90;99.90
3980;DHT22;2004;52.452;13.120;2023-04-16T11:08:20;9.90;99.90
3980;DHT22;2004;52.452;13.120;2023-04-16T11:16:15;10.00;99.90
3980;DHT22;2004;52.452;13.120;2023-04-16T11:24:11;10.10;99.90
3980;DHT22;2004;52.452;13.120;2023-04-16T11:32:01;10.20;99.90
3980;DHT22;2004;52.452;13.120;2023-04-16T11:39:52;10.30;99.90
3980;DHT22;2004;52.452;13.120;2023-04-16T11:47:47;10.40;99.90
3980;DHT22;2004;52.452;13.120;2023-04-16T11:55:43;10.40;99.90
3980;DHT22;2004;52.452;13.120;2023-04-16T12:03:39;10.30;99.90
3980;DHT22;2004;52.452;13.120;2023-04-16T12:11:39;10.30;99.90
3980;DHT22;2004;52.452;13.120;2023-04-16T12:19:30;10.30;99.90
3980;DHT22;2004;52.452;13.120;2023-04-16T12:27:21;10.40;99.90
3980;DHT22;2004;52.452;13.120;2023-04-16T12:35:12;10.40;99.90
3980;DHT22;2004;52.452;13.120;2023-04-16T12:43:03;10.40;99.90
3980;DHT22;2004;52.452;13.120;2023-04-16T12:50:53;10.40;99.90
3980;DHT22;2004;52.452;13.120;2023-04-16T12:58:44;10.50;99.90
3980;DHT22;2004;52.452;13.120;2023-04-16T13:06:34;10.50;99.90
3980;DHT22;2004;52.452;13.120;2023-04-16T13:14:27;10.50;99.90
3980;DHT22;2004;52.452;13.120;2023-04-16T13:22:18;10.40;99.90
3980;DHT22;2004;52.452;13.120;2023-04-16T13:30:09;10.40;99.90
3980;DHT22;2004;52.452;13.120;2023-04-16T13:38:00;10.40;99.90
3980;DHT22;2004;52.452;13.120;2023-04-16T13:45:51;10.50;99.90
3980;DHT22;2004;52.452;13.120;2023-04-16T13:53:41;10.60;99.90
3980;DHT22;2004;52.452;13.120;2023-04-16T14:01:32;10.60;99.90
3980;DHT22;2004;52.452;13.120;2023-04-16T14:09:22;10.70;99.90
3980;DHT22;2004;52.452;13.120;2023-04-16T14:17:13;10.80;99.90
3980;DHT22;2004;52.452;13.120;2023-04-16T14:25:05;10.80;99.90
3980;DHT22;2004;52.452;13.120;2023-04-16T14:32:56;10.80;99.90
3980;DHT22;2004;52.452;13.120;2023-04-16T14:40:47;10.80;99.90
3980;DHT22;2004;52.452;13.120;2023-04-16T14:48:38;10.70;99.90
3980;DHT22;2004;52.452;13.120;2023-04-16T14:56:28;10.80;99.90
3980;DHT22;2004;52.452;13.120;2023-04-16T15:04:19;10.70;99.90
3980;DHT22;2004;52.452;13.120;2023-04-16T15:12:09;10.70;99.90
3980;DHT22;2004;52.452;13.120;2023-04-16T15:20:01;10.70;99.90
3980;DHT22;2004;52.452;13.120;2023-04-16T15:27:55;10.80;99.90
3980;DHT22;2004;52.452;13.120;2023-04-16T15:35:45;10.80;99.90
3980;DHT22;2004;52.452;13.120;2023-04-16T15:43:36;10.80;99.90
3980;DHT22;2004;52.452;13.120;2023-04-16T15:51:27;10.80;99.90
3980;DHT22;2004;52.452;13.120;2023-04-16T15:59:19;10.80;99.90
3980;DHT22;2004;52.452;13.120;2023-04-16T16:07:09;10.80;99.90
3980;DHT22;2004;52.452;13.120;2023-04-16T16:15:00;10.70;99.90
3980;DHT22;2004;52.452;13.120;2023-04-16T16:22:51;10.80;99.90
3980;DHT22;2004;52.452;13.120;2023-04-16T16:30:46;10.70;99.90
3980;DHT22;2004;52.452;13.120;2023-04-16T16:38:37;10.70;99.90
3980;DHT22;2004;52.452;13.120;2023-04-16T16:46:29;10.70;99.90
3980;DHT22;2004;52.452;13.120;2023-04-16T16:54:20;10.70;99.90
3980;DHT22;2004;52.452;13.120;2023-04-16T17:02:13;10.70;99.90
3980;DHT22;2004;52.452;13.120;2023-04-16T17:10:05;10.60;99.90
3980;DHT22;2004;52.452;13.120;2023-04-16T17:17:55;10.40;99.90
3980;DHT22;2004;52.452;13.120;2023-04-16T17:25:46;10.30;99.90
3980;DHT22;2004;52.452;13.120;2023-04-16T17:33:37;10.20;99.90
3980;DHT22;2004;52.452;13.120;2023-04-16T17:41:27;10.10;99.90
3980;DHT22;2004;52.452;13.120;2023-04-16T17:49:18;10.10;99.90
3980;DHT22;2004;52.452;13.120;2023-04-16T17:57:10;10.00;99.90
3980;DHT22;2004;52.452;13.120;2023-04-16T18:05:00;9.90;99.90
3980;DHT22;2004;52.452;13.120;2023-04-16T18:12:52;9.90;99.90
3980;DHT22;2004;52.452;13.120;2023-04-16T18:20:46;9.80;99.90
3980;DHT22;2004;52.452;13.120;2023-04-16T18:28:36;9.70;99.90
3980;DHT22;2004;52.452;13.120;2023-04-16T18:36:28;9.70;99.90
3980;DHT22;2004;52.452;13.120;2023-04-16T18:44:18;9.60;99.90
3980;DHT22;2004;52.452;13.120;2023-04-16T18:52:10;9.60;99.90
3980;DHT22;2004;52.452;13.120;2023-04-16T19:00:01;9.50;99.90
3980;DHT22;2004;52.452;13.120;2023-04-16T19:07:58;9.50;99.90
3980;DHT22;2004;52.452;13.120;2023-04-16T19:15:48;9.50;99.90
3980;DHT22;2004;52.452;13.120;2023-04-16T19:23:40;9.40;99.90
3980;DHT22;2004;52.452;13.120;2023-04-16T19:31:30;9.40;99.90
3980;DHT22;2004;52.452;13.120;2023-04-16T19:39:21;9.50;99.90
3980;DHT22;2004;52.452;13.120;2023-04-16T19:47:14;9.40;99.90
3980;DHT22;2004;52.452;13.120;2023-04-16T19:55:06;9.40;99.90
3980;DHT22;2004;52.452;13.120;2023-04-16T20:02:57;9.30;99.90
3980;DHT22;2004;52.452;13.120;2023-04-16T20:10:48;9.30;99.90
3980;DHT22;2004;52.452;13.120;2023-04-16T20:18:39;9.20;99.90
3980;DHT22;2004;52.452;13.120;2023-04-16T20:26:32;9.10;99.90
3980;DHT22;2004;52.452;13.120;2023-04-16T20:34:23;9.00;99.90
3980;DHT22;2004;52.452;13.120;2023-04-16T20:42:13;8.90;99.90
3980;DHT22;2004;52.452;13.120;2023-04-16T20:50:04;8.80;99.90
3980;DHT22;2004;52.452;13.120;2023-04-16T20:57:56;8.70;99.90
3980;DHT22;2004;52.452;13.120;2023-04-16T21:05:51;8.70;99.90
3980;DHT22;2004;52.452;13.120;2023-04-16T21:13:46;8.60;99.90
3980;DHT22;2004;52.452;13.120;2023-04-16T21:21:37;8.50;99.90
3980;DHT22;2004;52.452;13.120;2023-04-16T21:29:28;8.40;99.90
3980;DHT22;2004;52.452;13.120;2023-04-16T21:37:18;8.30;99.90
3980;DHT22;2004;52.452;13.120;2023-04-16T21:45:09;8.30;99.90
3980;DHT22;2004;52.452;13.120;2023-04-16T21:53:00;8.20;99.90
3980;DHT22;2004;52.452;13.120;2023-04-16T22:00:58;8.20;99.90
3980;DHT22;2004;52.452;13.120;2023-04-16T22:08:49;8.10;99.90
3980;DHT22;2004;52.452;13.120;2023-04-16T22:16:39;8.10;99.90
3980;DHT22;2004;52.452;13.120;2023-04-16T22:24:31;8.00;99.90
3980;DHT22;2004;52.452;13.120;2023-04-16T22:32:21;8.00;99.90
3980;DHT22;2004;52.452;13.120;2023-04-16T22:40:14;8.00;99.90
3980;DHT22;2004;52.452;13.120;2023-04-16T22:48:05;7.90;99.90
3980;DHT22;2004;52.452;13.120;2023-04-16T22:55:55;7.90;99.90
3980;DHT22;2004;52.452;13.120;2023-04-16T23:03:46;7.90;99.90
3980;DHT22;2004;52.452;13.120;2023-04-16T23:11:38;7.90;99.90
3980;DHT22;2004;52.452;13.120;2023-04-16T23:19:28;7.90;99.90
3980;DHT22;2004;52.452;13.120;2023-04-16T23:27:20;7.80;99.90
3980;DHT22;2004;52.452;13.120;2023-04-16T23:35:11;7.80;99.90
3980;DHT22;2004;52.452;13.120;2023-04-16T23:43:04;7.80;99.90
3980;DHT22;2004;52.452;13.120;2023-04-16T23:50:55;7.80;99.90
3980;DHT22;2004;52.452;13.120;2023-04-16T23:58:46;7.70;99.90
